Time;durP1;ratioP1;P1;durP2;ratioP2;P2;SDS_P1;SDS_P2;PMS_P1;PMS_P2;Temp;Humidity;BMP_temperature;BMP_pressure;BME280_temperature;BME280_humidity;BME280_pressure;Samples;Min_cycle;Max_cycle;Signal;HPM_P1;HPM_P2
2022/06/29 00:00:03;;;;;;;;;;;;;;;19.92;100.00;99562.80;1652664;86;20173;-66
2022/06/29 00:02:36;;;;;;;;;;;;;;;19.91;100.00;99561.19;1672277;86;20173;-67
2022/06/29 00:05:13;;;;;;;;;;;;;;;19.92;100.00;99562.80;1672837;85;20157;-67
2022/06/29 00:07:46;;;;;;;;;;;;;;;19.91;100.00;99564.56;1671994;86;20147;-67
2022/06/29 00:10:17;;;;;;;;;;;;;;;19.90;100.00;99567.14;1652550;86;20481;-67
2022/06/29 00:12:44;;;;;;;;;;;;;;;19.87;100.00;99562.32;1672755;85;20140;-67
2022/06/29 00:15:15;;;;;;;;;;;;;;;19.86;100.00;99569.08;1675655;85;20173;-67
2022/06/29 00:17:45;;;;;;;;;;;;;;;19.85;100.00;99564.69;1672678;84;20177;-67
2022/06/29 00:20:15;;;;;;;;;;;;;;;19.83;100.00;99567.05;1653641;86;20183;-67
2022/06/29 00:22:47;;;;;;;;;;;;;;;19.79;100.00;99562.22;1653647;86;20168;-67
2022/06/29 00:25:15;;;;;;;;;;;;;;;19.75;100.00;99563.35;1672838;86;20172;-67
2022/06/29 00:27:51;;;;;;;;;;;;;;;19.70;100.00;99563.09;1672770;86;20128;-66
2022/06/29 00:30:23;;;;;;;;;;;;;;;19.67;100.00;99572.20;1672592;85;20157;-67
2022/06/29 00:32:51;;;;;;;;;;;;;;;19.64;100.00;99568.77;1673017;84;20144;-67
2022/06/29 00:35:26;;;;;;;;;;;;;;;19.60;100.00;99569.34;1671176;85;21355;-66
2022/06/29 00:37:54;;;;;;;;;;;;;;;19.58;100.00;99570.30;1651946;86;20153;-66
2022/06/29 00:40:31;;;;;;;;;;;;;;;19.58;100.00;99570.30;1653975;86;20152;-66
2022/06/29 00:42:55;;;;;;;;;;;;;;;19.55;100.00;99573.84;1672565;86;20161;-66
2022/06/29 00:45:31;;;;;;;;;;;;;;;19.55;100.00;99566.07;1672290;85;20503;-66
2022/06/29 00:48:01;;;;;;;;;;;;;;;19.54;100.00;99572.82;1653018;86;20121;-66
2022/06/29 00:50:30;;;;;;;;;;;;;;;19.51;100.00;99575.77;1648559;87;20119;-66
2022/06/29 00:53:07;;;;;;;;;;;;;;;19.51;100.00;99583.28;1639295;87;20117;-66
2022/06/29 00:55:35;;;;;;;;;;;;;;;19.48;100.00;99583.44;1638964;87;20657;-66
2022/06/29 00:58:11;;;;;;;;;;;;;;;19.46;100.00;99578.25;1651444;86;20447;-66
2022/06/29 01:00:42;;;;;;;;;;;;;;;19.44;100.00;99577.02;1639009;87;21791;-66
2022/06/29 01:03:09;;;;;;;;;;;;;;;19.42;100.00;99577.98;1660487;86;20129;-66
2022/06/29 01:05:37;;;;;;;;;;;;;;;19.40;100.00;99568.61;1639659;86;20211;-66
2022/06/29 01:08:11;;;;;;;;;;;;;;;19.39;100.00;99568.39;1639810;86;20181;-66
2022/06/29 01:10:41;;;;;;;;;;;;;;;19.39;100.00;99567.59;1659776;86;20154;-66
2022/06/29 01:13:15;;;;;;;;;;;;;;;19.35;100.00;99574.49;1660596;86;21319;-66
2022/06/29 01:15:44;;;;;;;;;;;;;;;19.31;100.00;99570.84;1639454;86;20129;-66
2022/06/29 01:18:17;;;;;;;;;;;;;;;19.29;100.00;99569.02;1658786;85;20464;-67
2022/06/29 01:20:44;;;;;;;;;;;;;;;19.27;100.00;99567.80;1689353;85;20680;-66
2022/06/29 01:23:17;;;;;;;;;;;;;;;19.27;100.00;99570.58;1688912;85;20092;-66
2022/06/29 01:25:47;;;;;;;;;;;;;;;19.26;100.00;99563.41;1689050;85;21957;-66
2022/06/29 01:28:21;;;;;;;;;;;;;;;19.24;100.00;99557.41;1689398;85;20172;-66
2022/06/29 01:30:49;;;;;;;;;;;;;;;19.23;100.00;99561.37;1682230;85;20084;-66
2022/06/29 01:33:22;;;;;;;;;;;;;;;19.21;100.00;99551.20;1688555;84;20091;-66
2022/06/29 01:35:51;;;;;;;;;;;;;;;19.17;100.00;99546.97;1682906;85;20116;-67
2022/06/29 01:38:22;;;;;;;;;;;;;;;19.12;100.00;99555.03;1659875;85;41472;-67
2022/06/29 01:40:51;;;;;;;;;;;;;;;19.08;100.00;99554.17;1689355;84;20423;-67
2022/06/29 01:43:22;;;;;;;;;;;;;;;19.07;100.00;99557.33;1688926;85;20100;-68
2022/06/29 01:45:52;;;;;;;;;;;;;;;19.04;100.00;99563.08;1689600;85;20156;-67
2022/06/29 01:48:20;;;;;;;;;;;;;;;19.00;100.00;99558.63;1660263;85;20109;-67
2022/06/29 01:51:02;;;;;;;;;;;;;;;19.00;100.00;99558.05;1689518;84;21194;-67
2022/06/29 01:53:23;;;;;;;;;;;;;;;18.98;100.00;99559.00;1687543;85;20084;-67
2022/06/29 01:55:51;;;;;;;;;;;;;;;18.97;100.00;99557.39;1688985;85;20434;-67
2022/06/29 01:58:25;;;;;;;;;;;;;;;18.97;100.00;99556.00;1689091;85;20092;-67
2022/06/29 02:00:55;;;;;;;;;;;;;;;18.96;100.00;99557.17;1652065;85;20116;-67
2022/06/29 02:03:23;;;;;;;;;;;;;;;18.92;100.00;99554.92;1689660;85;21178;-66
2022/06/29 02:05:57;;;;;;;;;;;;;;;18.90;100.00;99564.22;1683082;84;20176;-67
2022/06/29 02:08:24;;;;;;;;;;;;;;;18.89;100.00;99565.98;1688944;85;20124;-67
2022/06/29 02:10:53;;;;;;;;;;;;;;;18.89;100.00;99580.70;1689565;85;20646;-67
2022/06/29 02:13:34;;;;;;;;;;;;;;;18.90;100.00;99579.52;1661779;85;20149;-66
2022/06/29 02:16:02;;;;;;;;;;;;;;;18.91;100.00;99574.17;1659421;85;20108;-67
2022/06/29 02:18:31;;;;;;;;;;;;;;;18.91;100.00;99574.17;1689412;85;20459;-67
2022/06/29 02:20:59;;;;;;;;;;;;;;;18.93;100.00;99581.56;1658492;85;20151;-66
2022/06/29 02:23:27;;;;;;;;;;;;;;;18.93;100.00;99582.95;1660199;84;20167;-67
2022/06/29 02:25:59;;;;;;;;;;;;;;;18.94;100.00;99581.78;1682903;84;20072;-67
2022/06/29 02:28:28;;;;;;;;;;;;;;;18.96;100.00;99585.58;1689574;85;21268;-66
2022/06/29 02:36:35;;;;;;;;;;;;;;;18.96;100.00;99598.10;1689557;85;20146;-66
2022/06/29 02:39:06;;;;;;;;;;;;;;;18.98;100.00;99597.95;1689515;85;20155;-66
2022/06/29 02:41:47;;;;;;;;;;;;;;;19.00;100.00;99605.33;1689613;85;21947;-67
2022/06/29 02:44:11;;;;;;;;;;;;;;;18.99;100.00;99599.55;1689077;85;20112;-66
2022/06/29 02:46:43;;;;;;;;;;;;;;;18.97;100.00;99601.09;1689609;85;20084;-67
2022/06/29 02:49:21;;;;;;;;;;;;;;;18.94;100.00;99599.86;1658820;85;20088;-67
2022/06/29 02:51:47;;;;;;;;;;;;;;;18.95;100.00;99603.45;1688582;85;20446;-66
2022/06/29 02:54:21;;;;;;;;;;;;;;;18.96;100.00;99605.05;1689722;85;21244;-67
2022/06/29 02:56:58;;;;;;;;;;;;;;;19.00;100.00;99609.51;1689464;85;20083;-66
2022/06/29 02:59:25;;;;;;;;;;;;;;;19.08;100.00;99608.43;1689620;85;20088;-66
2022/06/29 03:01:53;;;;;;;;;;;;;;;19.18;100.00;99604.81;1655425;85;20116;-67
2022/06/29 03:04:29;;;;;;;;;;;;;;;19.29;100.00;99616.93;1689528;84;20396;-67
2022/06/29 03:06:53;;;;;;;;;;;;;;;19.32;100.00;99617.58;1687278;84;21099;-67
2022/06/29 03:09:22;;;;;;;;;;;;;;;19.37;100.00;99617.27;1688363;85;20175;-68
2022/06/29 03:11:52;;;;;;;;;;;;;;;19.43;100.00;99620.75;1687963;85;20131;-68
2022/06/29 03:14:24;;;;;;;;;;;;;;;19.48;100.00;99626.59;1688735;84;20153;-67
2022/06/29 03:16:57;;;;;;;;;;;;;;;19.54;100.00;99625.72;1688533;83;20096;-67
2022/06/29 03:19:28;;;;;;;;;;;;;;;19.62;100.00;99631.03;1689382;85;21932;-67
2022/06/29 03:22:01;;;;;;;;;;;;;;;19.73;100.00;99625.00;1689550;85;20175;-67
2022/06/29 03:24:31;;;;;;;;;;;;;;;19.87;100.00;99617.45;1688512;85;20104;-67
2022/06/29 03:27:03;;;;;;;;;;;;;;;20.03;100.00;99615.88;1684016;85;20084;-67
2022/06/29 03:29:32;;;;;;;;;;;;;;;20.22;100.00;99621.28;1688211;85;20172;-67
2022/06/29 03:32:01;;;;;;;;;;;;;;;20.43;100.00;99619.39;1689588;85;21098;-67
2022/06/29 03:34:29;;;;;;;;;;;;;;;20.60;100.00;99619.39;1658813;85;20096;-67
2022/06/29 03:36:56;;;;;;;;;;;;;;;20.75;100.00;99623.95;1689779;85;20436;-67
2022/06/29 03:39:26;;;;;;;;;;;;;;;20.90;100.00;99624.88;1660043;84;20148;-69
2022/06/29 03:41:56;;;;;;;;;;;;;;;21.06;100.00;99628.23;1689730;85;20099;-68
2022/06/29 03:44:27;;;;;;;;;;;;;;;21.21;100.00;99626.38;1688881;85;21181;-67
2022/06/29 03:46:56;;;;;;;;;;;;;;;21.37;100.00;99624.16;1688878;84;20450;-67
2022/06/29 03:49:32;;;;;;;;;;;;;;;21.52;100.00;99628.64;1689477;85;20096;-67
2022/06/29 03:51:58;;;;;;;;;;;;;;;21.68;100.00;99638.94;1688590;85;20120;-66
2022/06/29 03:54:27;;;;;;;;;;;;;;;21.83;100.00;99633.45;1684131;85;20096;-67
2022/06/29 03:57:01;;;;;;;;;;;;;;;21.98;100.00;99630.33;1682920;85;21119;-66
2022/06/29 03:59:33;;;;;;;;;;;;;;;22.16;100.00;99627.67;1660414;85;20092;-67
2022/06/29 04:02:02;;;;;;;;;;;;;;;22.34;100.00;99624.96;1689386;84;20092;-67
2022/06/29 04:04:36;;;;;;;;;;;;;;;22.48;100.00;99624.22;1677055;85;20088;-67
2022/06/29 04:07:05;;;;;;;;;;;;;;;22.59;99.77;99623.03;1689416;85;20096;-67
2022/06/29 04:09:35;;;;;;;;;;;;;;;22.69;98.93;99622.87;1682065;85;20076;-66
2022/06/29 04:12:06;;;;;;;;;;;;;;;22.76;98.43;99621.49;1689398;85;20088;-67
2022/06/29 04:14:40;;;;;;;;;;;;;;;22.80;98.85;99616.73;1689444;85;20418;-66
2022/06/29 04:17:12;;;;;;;;;;;;;;;22.84;98.36;99614.75;1688855;83;20159;-67
2022/06/29 04:19:37;;;;;;;;;;;;;;;22.92;97.13;99616.96;1682155;85;20080;-67
2022/06/29 04:22:04;;;;;;;;;;;;;;;23.04;95.76;99615.98;1689525;85;21777;-67
2022/06/29 04:24:35;;;;;;;;;;;;;;;23.17;94.75;99612.77;1689478;85;20084;-67
2022/06/29 04:27:05;;;;;;;;;;;;;;;23.30;93.54;99615.38;1689473;85;20120;-67
2022/06/29 04:29:36;;;;;;;;;;;;;;;23.44;92.43;99613.19;1689546;85;20135;-67
2022/06/29 04:32:03;;;;;;;;;;;;;;;23.56;91.06;99612.81;1689515;85;20075;-67
2022/06/29 04:34:37;;;;;;;;;;;;;;;23.66;89.89;99610.00;1681270;85;21698;-68
2022/06/29 04:37:06;;;;;;;;;;;;;;;23.76;88.33;99601.34;1638145;86;20118;-67
2022/06/29 04:39:34;;;;;;;;;;;;;;;23.88;88.51;99598.72;1672044;86;20099;-68
2022/06/29 04:42:03;;;;;;;;;;;;;;;24.02;88.10;99601.49;1672175;84;20123;-67
2022/06/29 04:44:41;;;;;;;;;;;;;;;24.15;87.21;99594.24;1644409;86;20103;-66
2022/06/29 04:47:17;;;;;;;;;;;;;;;24.29;85.04;99591.98;1665792;85;21290;-66
2022/06/29 04:49:43;;;;;;;;;;;;;;;24.38;84.30;99590.95;1671435;85;20075;-66
2022/06/29 04:52:12;;;;;;;;;;;;;;;24.48;84.66;99589.30;1681682;84;20084;-71
2022/06/29 04:54:44;;;;;;;;;;;;;;;24.59;82.26;99583.03;1689100;85;20733;-74
2022/06/29 04:57:10;;;;;;;;;;;;;;;24.69;82.36;99582.17;1687009;83;20179;-69
2022/06/29 04:59:39;;;;;;;;;;;;;;;24.79;82.48;99579.11;1689147;85;21220;-71
2022/06/29 05:02:11;;;;;;;;;;;;;;;24.90;82.63;99571.39;1687501;84;20109;-73
2022/06/29 05:04:39;;;;;;;;;;;;;;;25.01;82.21;99568.73;1641897;85;20153;-73
2022/06/29 05:07:12;;;;;;;;;;;;;;;25.15;80.64;99567.83;1686516;85;20459;-72
2022/06/29 05:09:36;;;;;;;;;;;;;;;25.29;76.56;99575.34;1667208;84;20123;-70
2022/06/29 05:12:07;;;;;;;;;;;;;;;25.42;75.21;99577.80;1676360;85;21633;-69
2022/06/29 05:14:39;;;;;;;;;;;;;;;25.55;73.40;99572.47;1672615;85;20428;-69
2022/06/29 05:17:10;;;;;;;;;;;;;;;25.65;68.73;99568.18;1650618;85;20472;-71
2022/06/29 05:19:38;;;;;;;;;;;;;;;25.77;66.75;99567.46;1626969;87;20129;-71
2022/06/29 05:22:11;;;;;;;;;;;;;;;25.88;66.30;99563.93;1679934;85;20144;-69
2022/06/29 05:24:40;;;;;;;;;;;;;;;25.96;63.25;99560.63;1675043;85;21129;-70
2022/06/29 05:27:09;;;;;;;;;;;;;;;26.07;62.85;99561.08;1650113;85;20126;-71
2022/06/29 05:29:44;;;;;;;;;;;;;;;26.15;60.95;99569.62;1675220;85;20128;-69
2022/06/29 05:32:12;;;;;;;;;;;;;;;26.20;62.05;99562.92;1674863;85;20086;-73
2022/06/29 05:34:49;;;;;;;;;;;;;;;26.30;61.01;99564.01;1674444;85;20097;-73
2022/06/29 05:37:23;;;;;;;;;;;;;;;26.37;60.13;99567.37;1670044;85;20128;-73
2022/06/29 05:39:51;;;;;;;;;;;;;;;26.42;60.03;99575.34;1687878;84;20131;-74
2022/06/29 05:42:19;;;;;;;;;;;;;;;26.50;61.25;99582.48;1688249;85;20096;-75
2022/06/29 05:44:47;;;;;;;;;;;;;;;26.59;59.61;99582.73;1667322;85;20458;-76
2022/06/29 05:47:14;;;;;;;;;;;;;;;26.69;59.27;99583.80;1669654;85;20123;-72
2022/06/29 05:49:41;;;;;;;;;;;;;;;26.78;60.37;99589.09;1687175;85;21724;-73
2022/06/29 05:52:08;;;;;;;;;;;;;;;26.88;59.28;99590.16;1687664;85;20096;-71
2022/06/29 05:54:35;;;;;;;;;;;;;;;26.96;58.65;99588.86;1688197;85;20173;-71
2022/06/29 05:57:01;;;;;;;;;;;;;;;27.01;57.51;99588.39;1688135;85;20129;-73
2022/06/29 05:59:28;;;;;;;;;;;;;;;27.09;57.27;99586.26;1687874;84;20155;-74
2022/06/29 06:01:54;;;;;;;;;;;;;;;27.18;57.72;99587.28;1688326;85;21759;-75
2022/06/29 06:04:21;;;;;;;;;;;;;;;27.25;58.35;99588.58;1688655;85;20096;-75
2022/06/29 06:06:49;;;;;;;;;;;;;;;27.35;56.13;99586.81;1688361;85;20141;-69
2022/06/29 06:09:21;;;;;;;;;;;;;;;27.44;56.22;99587.05;1688165;85;20120;-70
2022/06/29 06:11:46;;;;;;;;;;;;;;;27.53;56.17;99578.84;1687513;84;20088;-67
2022/06/29 06:14:12;;;;;;;;;;;;;;;27.61;55.52;99570.47;1669721;85;21120;-67
2022/06/29 06:16:40;;;;;;;;;;;;;;;27.71;55.72;99573.53;1663878;84;20113;-68
2022/06/29 06:19:07;;;;;;;;;;;;;;;27.78;54.44;99568.52;1692250;84;20123;-71
2022/06/29 06:21:35;;;;;;;;;;;;;;;27.87;53.59;99569.37;1703087;84;20167;-67
2022/06/29 06:24:02;;;;;;;;;;;;;;;27.90;52.05;99573.53;1703863;84;20119;-68
2022/06/29 06:26:28;;;;;;;;;;;;;;;27.93;53.12;99564.20;1703505;84;21744;-68
2022/06/29 06:28:56;;;;;;;;;;;;;;;28.01;53.49;99563.45;1703391;84;20123;-68
2022/06/29 06:31:24;;;;;;;;;;;;;;;28.09;53.35;99566.31;1703260;84;20083;-69
2022/06/29 06:33:50;;;;;;;;;;;;;;;28.17;54.12;99569.17;1703555;84;20434;-68
2022/06/29 06:36:17;;;;;;;;;;;;;;;28.24;54.54;99566.84;1702369;84;20414;-67
2022/06/29 06:38:44;;;;;;;;;;;;;;;28.34;53.67;99563.59;1702512;84;21172;-69
2022/06/29 06:41:22;;;;;;;;;;;;;;;28.42;53.40;99557.36;1702547;84;20131;-73
2022/06/29 06:43:50;;;;;;;;;;;;;;;28.53;54.03;99552.89;1701745;84;20305;-71
2022/06/29 06:46:16;;;;;;;;;;;;;;;28.66;53.94;99557.25;1702479;84;20547;-71
2022/06/29 06:48:45;;;;;;;;;;;;;;;28.69;53.05;99547.89;1700539;84;20190;-72
2022/06/29 06:51:12;;;;;;;;;;;;;;;28.72;52.37;99552.05;1702033;84;21210;-72
2022/06/29 06:53:38;;;;;;;;;;;;;;;28.73;52.14;99552.23;1701313;84;20423;-74
2022/06/29 06:56:06;;;;;;;;;;;;;;;28.80;53.19;99559.13;1700912;84;20347;-73
2022/06/29 06:58:35;;;;;;;;;;;;;;;28.92;53.88;99544.31;1700991;84;20992;-72
2022/06/29 07:01:04;;;;;;;;;;;;;;;29.02;52.43;99546.70;1701959;84;20143;-73
2022/06/29 07:03:36;;;;;;;;;;;;;;;29.10;52.97;99541.67;1702278;84;22080;-71
2022/06/29 07:06:06;;;;;;;;;;;;;;;29.19;52.18;99539.02;1702473;84;20119;-73
2022/06/29 07:08:34;;;;;;;;;;;;;;;29.23;51.81;99541.94;1702013;84;20501;-74
2022/06/29 07:11:01;;;;;;;;;;;;;;;29.25;52.25;99535.84;1702370;84;20164;-73
2022/06/29 07:13:28;;;;;;;;;;;;;;;29.36;51.57;99537.78;1702610;84;20175;-73
2022/06/29 07:15:54;;;;;;;;;;;;;;;29.44;49.88;99526.48;1702674;84;21148;-73
2022/06/29 07:18:21;;;;;;;;;;;;;;;29.55;51.02;99531.22;1674737;84;20134;-74
2022/06/29 07:20:48;;;;;;;;;;;;;;;29.64;50.87;99530.58;1693253;84;20144;-73
2022/06/29 07:23:14;;;;;;;;;;;;;;;29.71;50.85;99534.63;1691677;85;20160;-74
2022/06/29 07:25:41;;;;;;;;;;;;;;;29.82;51.53;99532.92;1691529;84;20195;-68
2022/06/29 07:28:08;;;;;;;;;;;;;;;29.97;50.48;99528.45;1690337;85;21148;-72
2022/06/29 07:30:35;;;;;;;;;;;;;;;30.08;51.72;99535.22;1690194;84;20449;-71
2022/06/29 07:33:03;;;;;;;;;;;;;;;30.25;51.39;99529.66;1686488;85;20175;-72
2022/06/29 07:35:29;;;;;;;;;;;;;;;30.44;51.02;99525.05;1691647;85;20203;-71
2022/06/29 07:37:55;;;;;;;;;;;;;;;30.59;51.64;99523.39;1691930;85;20477;-74
2022/06/29 07:40:22;;;;;;;;;;;;;;;30.76;48.57;99529.09;1691622;85;21138;-68
2022/06/29 07:42:49;;;;;;;;;;;;;;;30.82;48.54;99527.28;1691664;85;20180;-68
2022/06/29 07:45:17;;;;;;;;;;;;;;;30.92;48.97;99524.56;1691005;85;20147;-68
2022/06/29 07:47:44;;;;;;;;;;;;;;;31.02;49.73;99522.80;1690240;85;20148;-68
2022/06/29 07:50:11;;;;;;;;;;;;;;;31.11;48.22;99516.43;1689881;85;20207;-69
2022/06/29 07:52:39;;;;;;;;;;;;;;;31.18;48.82;99517.02;1690811;85;21519;-68
2022/06/29 07:55:06;;;;;;;;;;;;;;;31.27;47.34;99517.70;1691068;84;20127;-68
2022/06/29 07:57:33;;;;;;;;;;;;;;;31.32;47.09;99515.70;1691544;85;20465;-67
2022/06/29 08:00:01;;;;;;;;;;;;;;;31.41;46.92;99512.17;1691207;85;20807;-67
2022/06/29 08:02:27;;;;;;;;;;;;;;;31.46;46.40;99513.80;1691355;85;20178;-67
2022/06/29 08:04:54;;;;;;;;;;;;;;;31.47;47.59;99511.13;1691537;85;21769;-68
2022/06/29 08:07:21;;;;;;;;;;;;;;;31.56;47.08;99509.62;1691299;84;20127;-68
2022/06/29 08:09:48;;;;;;;;;;;;;;;31.68;47.03;99511.66;1690457;85;20211;-67
2022/06/29 08:12:17;;;;;;;;;;;;;;;31.76;46.84;99510.94;1689958;85;20128;-69
2022/06/29 08:14:45;;;;;;;;;;;;;;;31.77;46.84;99502.56;1689827;85;20196;-68
2022/06/29 08:17:13;;;;;;;;;;;;;;;31.78;47.15;99506.19;1690368;85;21180;-67
2022/06/29 08:19:40;;;;;;;;;;;;;;;31.81;45.23;99504.64;1684893;85;20448;-67
2022/06/29 08:22:06;;;;;;;;;;;;;;;31.76;45.77;99504.47;1668518;86;20163;-67
2022/06/29 08:24:33;;;;;;;;;;;;;;;31.81;45.13;99503.22;1668435;86;20232;-68
2022/06/29 08:27:00;;;;;;;;;;;;;;;32.00;45.90;99502.73;1668452;86;20542;-68
2022/06/29 08:29:26;;;;;;;;;;;;;;;32.32;47.64;99509.27;1667795;86;21109;-67
2022/06/29 08:31:53;;;;;;;;;;;;;;;32.68;45.97;99513.69;1667693;86;20185;-69
2022/06/29 08:34:23;;;;;;;;;;;;;;;32.98;44.02;99517.74;1667969;86;20170;-68
2022/06/29 08:36:48;;;;;;;;;;;;;;;33.26;43.07;99509.28;1668082;84;20229;-66
2022/06/29 08:39:15;;;;;;;;;;;;;;;33.53;43.32;99500.78;1668037;86;20176;-69
2022/06/29 08:41:41;;;;;;;;;;;;;;;33.81;42.84;99509.36;1667937;86;21190;-67
2022/06/29 08:44:08;;;;;;;;;;;;;;;33.96;41.80;99506.81;1667964;86;20157;-68
2022/06/29 08:46:35;;;;;;;;;;;;;;;33.96;41.90;99510.29;1667961;86;20192;-69
2022/06/29 08:49:03;;;;;;;;;;;;;;;34.02;41.22;99504.11;1668049;86;20722;-68
2022/06/29 08:51:32;;;;;;;;;;;;;;;34.19;40.76;99505.95;1668055;86;20514;-69
2022/06/29 08:54:01;;;;;;;;;;;;;;;34.30;41.19;99510.52;1667962;86;21787;-68
2022/06/29 08:56:28;;;;;;;;;;;;;;;34.43;40.48;99506.88;1667906;86;20220;-68
2022/06/29 08:58:54;;;;;;;;;;;;;;;34.61;39.89;99510.30;1668048;86;20230;-68
2022/06/29 09:01:21;;;;;;;;;;;;;;;34.70;40.50;99518.15;1668070;86;20196;-69
2022/06/29 09:03:48;;;;;;;;;;;;;;;34.84;39.38;99514.47;1668134;86;20169;-67
2022/06/29 09:06:14;;;;;;;;;;;;;;;34.91;40.54;99512.70;1668154;86;21149;-67
2022/06/29 09:08:41;;;;;;;;;;;;;;;34.82;39.85;99515.59;1668092;86;20185;-68
2022/06/29 09:11:28;;;;;;;;;;;;;;;34.58;39.22;99509.20;1668041;86;20200;-68
2022/06/29 09:14:15;;;;;;;;;;;;;;;34.30;41.45;99511.34;1667763;86;20214;-68
2022/06/29 09:17:02;;;;;;;;;;;;;;;34.38;40.99;99506.09;1667698;86;20177;-68
2022/06/29 09:19:32;;;;;;;;;;;;;;;34.35;40.27;99508.48;1668135;84;21218;-69
2022/06/29 09:21:59;;;;;;;;;;;;;;;34.08;41.55;99515.02;1666601;86;20116;-67
2022/06/29 09:24:28;;;;;;;;;;;;;;;33.73;41.89;99513.91;1686865;85;20458;-67
2022/06/29 09:26:57;;;;;;;;;;;;;;;33.41;42.50;99512.50;1687165;85;20208;-67
2022/06/29 09:29:26;;;;;;;;;;;;;;;33.09;43.41;99513.83;1687123;85;20160;-68
2022/06/29 09:32:08;;;;;;;;;;;;;;;32.82;43.48;99512.34;1687099;85;21119;-67
2022/06/29 09:34:44;;;;;;;;;;;;;;;32.58;44.72;99512.06;1686973;85;20131;-68
2022/06/29 09:37:15;;;;;;;;;;;;;;;32.38;46.17;99518.11;1657949;85;20497;-67
2022/06/29 09:39:44;;;;;;;;;;;;;;;32.16;44.61;99521.61;1687216;85;20944;-67
2022/06/29 09:42:13;;;;;;;;;;;;;;;32.02;46.38;99515.05;1687132;85;20207;-67
2022/06/29 09:44:41;;;;;;;;;;;;;;;32.15;46.10;99512.30;1687142;85;21226;-67
2022/06/29 09:47:14;;;;;;;;;;;;;;;32.35;45.41;99506.27;1687155;85;20195;-67
2022/06/29 09:49:38;;;;;;;;;;;;;;;32.73;44.42;99504.55;1687056;85;20204;-68
2022/06/29 09:52:06;;;;;;;;;;;;;;;33.09;43.65;99505.30;1687074;85;20207;-68
2022/06/29 09:54:39;;;;;;;;;;;;;;;33.43;41.80;99505.70;1687224;85;20207;-67
2022/06/29 09:57:07;;;;;;;;;;;;;;;33.34;42.09;99504.27;1687012;85;21265;-68
2022/06/29 10:05:14;;;;;;;;;;;;;;;32.62;44.05;99501.97;1581156;89;20520;-69
2022/06/29 10:07:46;;;;;;;;;;;;;;;32.88;45.50;99495.47;1635771;85;20175;-68
2022/06/29 10:10:14;;;;;;;;;;;;;;;33.37;42.41;99483.41;1687156;85;21122;-68
2022/06/29 10:16:02;;;;;;;;;;;;;;;34.20;41.34;99481.27;1683735;85;20450;-68
2022/06/29 10:18:49;;;;;;;;;;;;;;;34.75;39.72;99480.42;1688600;83;20495;-69
2022/06/29 10:21:24;;;;;;;;;;;;;;;34.92;39.01;99476.57;1680531;84;20161;-67
2022/06/29 10:23:58;;;;;;;;;;;;;;;35.20;39.28;99466.41;1674763;85;21142;-67
2022/06/29 10:26:37;;;;;;;;;;;;;;;35.59;38.18;99458.66;1675239;85;20136;-68
2022/06/29 10:29:20;;;;;;;;;;;;;;;35.82;36.78;99462.09;1675299;85;20117;-67
2022/06/29 10:31:57;;;;;;;;;;;;;;;35.95;36.62;99461.17;1673824;85;20147;-68
2022/06/29 10:34:34;;;;;;;;;;;;;;;35.85;36.70;99456.04;1674332;85;20424;-71
2022/06/29 10:37:09;;;;;;;;;;;;;;;35.68;37.52;99450.80;1673737;86;21322;-69
2022/06/29 10:39:50;;;;;;;;;;;;;;;35.64;38.34;99454.48;1673614;86;20089;-70
2022/06/29 10:45:13;;;;;;;;;;;;;;;36.11;34.52;99446.25;1673960;84;20407;-73
2022/06/29 10:47:40;;;;;;;;;;;;;;;36.01;33.72;99447.78;1632497;86;20152;-69
2022/06/29 10:50:22;;;;;;;;;;;;;;;35.96;34.28;99432.76;1694679;83;21694;-69
2022/06/29 10:52:49;;;;;;;;;;;;;;;36.16;34.20;99432.70;1694353;84;20163;-68
2022/06/29 10:55:16;;;;;;;;;;;;;;;36.32;32.86;99427.94;1694063;84;20119;-76
2022/06/29 10:57:43;;;;;;;;;;;;;;;36.37;31.81;99418.66;1694408;84;20652;-74
2022/06/29 11:00:18;;;;;;;;;;;;;;;36.26;32.81;99422.73;1692156;84;20314;-71
2022/06/29 11:02:45;;;;;;;;;;;;;;;36.06;32.03;99429.95;1694657;84;21909;-70
2022/06/29 11:05:11;;;;;;;;;;;;;;;35.70;33.43;99423.19;1694134;84;20088;-71
2022/06/29 11:13:13;;;;;;;;;;;;;;;35.99;33.80;99417.49;1695037;84;20092;-69
2022/06/29 11:15:40;;;;;;;;;;;;;;;35.90;32.25;99415.38;1665982;84;21295;-71
2022/06/29 11:18:14;;;;;;;;;;;;;;;35.61;32.78;99412.64;1694654;83;20083;-71
2022/06/29 11:20:43;;;;;;;;;;;;;;;35.31;32.06;99418.93;1693165;83;20182;-72
2022/06/29 11:23:11;;;;;;;;;;;;;;;35.03;32.67;99417.56;1667493;84;20148;-77
2022/06/29 11:25:44;;;;;;;;;;;;;;;34.91;32.10;99412.89;1696126;84;20087;-75
2022/06/29 11:28:11;;;;;;;;;;;;;;;34.92;32.38;99416.68;1696249;84;21279;-71
2022/06/29 11:30:42;;;;;;;;;;;;;;;34.85;30.90;99409.91;1696073;84;20099;-76
2022/06/29 11:33:10;;;;;;;;;;;;;;;34.61;33.48;99408.47;1696099;84;20154;-70
2022/06/29 11:35:42;;;;;;;;;;;;;;;34.23;36.13;99406.87;1693615;84;20449;-72
2022/06/29 11:38:15;;;;;;;;;;;;;;;33.95;35.67;99400.50;1693930;84;20135;-72
2022/06/29 11:40:42;;;;;;;;;;;;;;;33.67;33.51;99399.11;1693998;84;21232;-70
2022/06/29 11:43:16;;;;;;;;;;;;;;;33.65;36.29;99389.47;1694422;83;20427;-71
2022/06/29 11:45:49;;;;;;;;;;;;;;;33.97;36.28;99384.52;1694500;84;20095;-77
2022/06/29 11:48:26;;;;;;;;;;;;;;;34.49;33.30;99375.28;1694768;84;20075;-72
2022/06/29 11:51:04;;;;;;;;;;;;;;;35.03;34.00;99360.52;1689704;84;20440;-69
2022/06/29 11:53:47;;;;;;;;;;;;;;;35.54;31.71;99353.72;1693719;84;21143;-70
2022/06/29 11:56:17;;;;;;;;;;;;;;;35.89;31.93;99343.19;1657473;85;20474;-71
2022/06/29 11:58:49;;;;;;;;;;;;;;;36.23;31.24;99348.01;1694366;84;20096;-71
2022/06/29 12:01:19;;;;;;;;;;;;;;;36.46;31.99;99332.77;1694633;84;20151;-73
2022/06/29 12:03:57;;;;;;;;;;;;;;;36.64;30.66;99329.64;1694124;83;20161;-71
2022/06/29 12:06:29;;;;;;;;;;;;;;;36.71;30.90;99324.92;1694511;84;20644;-72
2022/06/29 12:08:56;;;;;;;;;;;;;;;36.78;28.90;99327.23;1693685;84;20115;-71
2022/06/29 12:11:29;;;;;;;;;;;;;;;36.70;29.73;99327.64;1694350;84;20128;-72
2022/06/29 12:14:03;;;;;;;;;;;;;;;36.86;30.30;99316.94;1667333;84;20490;-71
2022/06/29 12:16:33;;;;;;;;;;;;;;;37.00;30.41;99311.75;1694869;83;20186;-73
2022/06/29 12:18:59;;;;;;;;;;;;;;;36.88;29.57;99300.06;1695002;84;22147;-70
2022/06/29 12:21:34;;;;;;;;;;;;;;;37.00;31.16;99293.94;1694057;84;20189;-73
2022/06/29 12:24:03;;;;;;;;;;;;;;;37.16;28.88;99292.55;1693553;84;20072;-71
2022/06/29 12:26:34;;;;;;;;;;;;;;;37.04;28.23;99288.78;1694543;84;20446;-71
2022/06/29 12:29:13;;;;;;;;;;;;;;;36.78;28.85;99287.20;1694569;84;20489;-71
2022/06/29 12:31:46;;;;;;;;;;;;;;;36.81;28.87;99272.69;1661121;84;20956;-71
2022/06/29 12:34:18;;;;;;;;;;;;;;;37.10;28.78;99268.82;1693838;84;20442;-70
2022/06/29 12:36:44;;;;;;;;;;;;;;;37.50;28.30;99269.37;1666775;84;20455;-70
2022/06/29 12:39:14;;;;;;;;;;;;;;;37.76;28.18;99267.11;1694627;84;20354;-71
2022/06/29 12:41:45;;;;;;;;;;;;;;;37.84;27.11;99268.21;1660331;84;20442;-71
2022/06/29 12:44:11;;;;;;;;;;;;;;;37.80;28.05;99268.45;1692831;84;21174;-71
2022/06/29 12:46:49;;;;;;;;;;;;;;;37.99;27.54;99261.68;1665902;84;20100;-71
2022/06/29 12:49:16;;;;;;;;;;;;;;;38.37;26.47;99253.17;1694390;83;20455;-72
2022/06/29 12:51:42;;;;;;;;;;;;;;;38.47;26.98;99252.31;1694878;84;20119;-71
2022/06/29 12:54:24;;;;;;;;;;;;;;;38.39;26.39;99249.80;1682610;84;20124;-71
2022/06/29 12:56:55;;;;;;;;;;;;;;;38.26;26.96;99250.25;1652811;86;21594;-70
2022/06/29 12:59:12;;;;;;;;;;;;;;;38.04;26.54;99255.20;1621306;87;20100;-69
2022/06/29 13:01:47;;;;;;;;;;;;;;;37.74;27.23;99262.53;1635918;86;20183;-70
2022/06/29 13:04:12;;;;;;;;;;;;;;;37.37;26.73;99258.97;1693540;84;20095;-70
2022/06/29 13:06:53;;;;;;;;;;;;;;;37.05;28.92;99246.66;1683494;84;20449;-73
2022/06/29 13:09:14;;;;;;;;;;;;;;;36.78;28.68;99242.88;1687534;84;20100;-72
2022/06/29 13:11:39;;;;;;;;;;;;;;;36.38;29.18;99246.68;1694503;84;20095;-76
2022/06/29 13:14:10;;;;;;;;;;;;;;;35.85;29.57;99259.78;1662714;84;20451;-73
2022/06/29 13:16:40;;;;;;;;;;;;;;;35.37;29.76;99270.02;1694102;83;20131;-72
2022/06/29 13:19:06;;;;;;;;;;;;;;;34.89;30.81;99264.30;1693548;83;20100;-70